James Reserve, California Weather observations

Data are for 10 minute period ending at time listed.
 Day   Time   Solar   Ave.   Ave.  Ave.  Vector  Max.   Baro.   Total    
  of    of     Rad.   Air    Rel.  Wind   Wind   Wind  Press.  Precip.   
Year   Day            Temp.  Hum.  Speed  Dir.   Gust                    
2014   (PST)  Kw/m2    F      %     mph   deg.    mph    mb.     in.     
-------------------------------------------------------------------------
 355    0:00   100.00  99999.0   99999  99999.0   99999   99999.0   99999.0   99999.00 
 355    0:10   100.00  99999.0   99999  99999.0   99999   99999.0   99999.0   99999.00 
 355    0:20   100.00  99999.0   99999  99999.0   99999   99999.0   99999.0   99999.00 
 355    0:30   100.00  99999.0   99999  99999.0   99999   99999.0   99999.0   99999.00 
 355    0:40   100.00  99999.0   99999  99999.0   99999   99999.0   99999.0   99999.00 
 355    0:50   100.00  99999.0   99999  99999.0   99999   99999.0   99999.0   99999.00 
 355    1:00   100.00  99999.0   99999  99999.0   99999   99999.0   99999.0   99999.00 
 355    1:10   100.00  99999.0   99999  99999.0   99999   99999.0   99999.0   99999.00 
 355    1:20   100.00  99999.0   99999  99999.0   99999   99999.0   99999.0   99999.00 
 355    1:30   100.00  99999.0   99999  99999.0   99999   99999.0   99999.0   99999.00 
 355    1:40   100.00  99999.0   99999  99999.0   99999   99999.0   99999.0   99999.00 
 355    1:50   100.00  99999.0   99999  99999.0   99999   99999.0   99999.0   99999.00 
 355    2:00   100.00  99999.0   99999  99999.0   99999   99999.0   99999.0   99999.00 
 355    2:10   100.00  99999.0   99999  99999.0   99999   99999.0   99999.0   99999.00 
 355    2:20   100.00  99999.0   99999  99999.0   99999   99999.0   99999.0   99999.00 
 355    2:30   100.00  99999.0   99999  99999.0   99999   99999.0   99999.0   99999.00 
 355    2:40   100.00  99999.0   99999  99999.0   99999   99999.0   99999.0   99999.00 
 355    2:50   100.00  99999.0   99999  99999.0   99999   99999.0   99999.0   99999.00 
 355    3:00   100.00  99999.0   99999  99999.0   99999   99999.0   99999.0   99999.00 
 355    3:10   100.00  99999.0   99999  99999.0   99999   99999.0   99999.0   99999.00 
 355    3:20   100.00  99999.0   99999  99999.0   99999   99999.0   99999.0   99999.00 
 355    3:30   100.00  99999.0   99999  99999.0   99999   99999.0   99999.0   99999.00 
 355    3:40   100.00  99999.0   99999  99999.0   99999   99999.0   99999.0   99999.00 
 355    3:50   100.00  99999.0   99999  99999.0   99999   99999.0   99999.0   99999.00 
 355    4:00   100.00  99999.0   99999  99999.0   99999   99999.0   99999.0   99999.00 
 355    4:10   100.00  99999.0   99999  99999.0   99999   99999.0   99999.0   99999.00 
 355    4:20   100.00  99999.0   99999  99999.0   99999   99999.0   99999.0   99999.00 
 355    4:30   100.00  99999.0   99999  99999.0   99999   99999.0   99999.0   99999.00 
 355    4:40   100.00  99999.0   99999  99999.0   99999   99999.0   99999.0   99999.00 
 355    4:50   100.00  99999.0   99999  99999.0   99999   99999.0   99999.0   99999.00 
 355    5:00   100.00  99999.0   99999  99999.0   99999   99999.0   99999.0   99999.00 
 355    5:10   100.00  99999.0   99999  99999.0   99999   99999.0   99999.0   99999.00 
 355    5:20   100.00  99999.0   99999  99999.0   99999   99999.0   99999.0   99999.00 
 355    5:30   100.00  99999.0   99999  99999.0   99999   99999.0   99999.0   99999.00 
 355    5:40   100.00  99999.0   99999  99999.0   99999   99999.0   99999.0   99999.00 
 355    5:50   100.00  99999.0   99999  99999.0   99999   99999.0   99999.0   99999.00 
 355    6:00   100.00  99999.0   99999  99999.0   99999   99999.0   99999.0   99999.00 
 355    6:10   100.00  99999.0   99999  99999.0   99999   99999.0   99999.0   99999.00 
 355    6:20   100.00  99999.0   99999  99999.0   99999   99999.0   99999.0   99999.00 
 355    6:30   100.00  99999.0   99999  99999.0   99999   99999.0   99999.0   99999.00 
 355    6:40   100.00  99999.0   99999  99999.0   99999   99999.0   99999.0   99999.00 
 355    6:50   100.00  99999.0   99999  99999.0   99999   99999.0   99999.0   99999.00 
 355    7:00   100.00  99999.0   99999  99999.0   99999   99999.0   99999.0   99999.00 
 355    7:10   100.00  99999.0   99999  99999.0   99999   99999.0   99999.0   99999.00 
 355    7:20   100.00  99999.0   99999  99999.0   99999   99999.0   99999.0   99999.00 
 355    7:30   100.00  99999.0   99999  99999.0   99999   99999.0   99999.0   99999.00 
 355    7:40   100.00  99999.0   99999  99999.0   99999   99999.0   99999.0   99999.00 
 355    7:50   100.00  99999.0   99999  99999.0   99999   99999.0   99999.0   99999.00 
 355    8:00   100.00  99999.0   99999  99999.0   99999   99999.0   99999.0   99999.00 
 355    8:10   100.00  99999.0   99999  99999.0   99999   99999.0   99999.0   99999.00 
 355    8:20   100.00  99999.0   99999  99999.0   99999   99999.0   99999.0   99999.00 
 355    8:30   100.00  99999.0   99999  99999.0   99999   99999.0   99999.0   99999.00 
 355    8:40   100.00  99999.0   99999  99999.0   99999   99999.0   99999.0   99999.00 
 355    8:50   100.00  99999.0   99999  99999.0   99999   99999.0   99999.0   99999.00 
 355    9:00   100.00  99999.0   99999  99999.0   99999   99999.0   99999.0   99999.00 
 355    9:10   100.00  99999.0   99999  99999.0   99999   99999.0   99999.0   99999.00 
 355    9:20   100.00  99999.0   99999  99999.0   99999   99999.0   99999.0   99999.00 
 355    9:30   100.00  99999.0   99999  99999.0   99999   99999.0   99999.0   99999.00 
 355    9:40   100.00  99999.0   99999  99999.0   99999   99999.0   99999.0   99999.00 
 355    9:50   100.00  99999.0   99999  99999.0   99999   99999.0   99999.0   99999.00 
 355   10:00   100.00  99999.0   99999  99999.0   99999   99999.0   99999.0   99999.00 
 355   10:10   0.11   45.5    97    0.2   108     0.4   840.0    0.00 
 355   10:20   0.11   46.9    96    0.3    74     0.8   841.0    0.00 
 355   10:30   0.14   48.1    90    0.4    46     0.9   841.0    0.00 
 355   10:40   0.18   49.3    87    0.4    61     0.8   841.0    0.00 
 355   10:50   0.17   50.5    85    0.2   142     0.5   841.0    0.00 
 355   11:00   0.15   50.7    86    0.3    55     0.6   841.0    0.00 
 355   11:10   0.22   51.0    84    0.3    60     0.8   841.0    0.00 
 355   11:20   0.27   52.1    80    0.2   139     0.6   841.0    0.00 
 355   11:30   0.29   53.6    80    0.4   214     1.7   841.0    0.00 
 355   11:40   0.43   54.2    78    0.3   211     0.6   841.0    0.00 
 355   11:50   0.40   55.7    71    0.4   236     1.2   841.0    0.00 
 355   12:00   0.40   56.9    59    0.4   160     1.0   841.0    0.00 
 355   12:10   0.36   57.8    58    0.6   190     1.4   841.0    0.00 
 355   12:20   0.42   58.7    51    0.7   172     1.7   840.0    0.00 
 355   12:30   0.39   58.0    55    0.4   112     0.7   840.0    0.00 
 355   12:40   0.37   57.8    58    0.3   123     0.8   840.0    0.00 
 355   12:50   0.27   57.3    64    0.3   206     0.7   840.0    0.00 
 355   13:00   0.28   56.0    69    0.1   200     0.4   840.0    0.00 
 355   13:10   0.30   56.0    73    0.3   221     0.7   839.0    0.00 
 355   13:20   0.30   56.0    71    0.3   202     1.0   839.0    0.00 
 355   13:30   0.22   56.8    72    0.3    75     0.7   839.0    0.00 
 355   13:40   0.19   57.5    59    0.4    36     1.1   839.0    0.00 
 355   13:50   0.18   57.5    60    0.3   122     0.9   839.0    0.00 
 355   14:00   0.16   56.8    66    0.4   180     1.5   839.0    0.00 

Return to James Reserve graphs page.


Western Regional Climate Center,wrcc@dri.edu